sensor_id;sensor_type;location;lat;lon;timestamp;P1;durP1;ratioP1;P2;durP2;ratioP2
28068;SDS011;15382;47.578;8.086;2023-04-25T00:07:51;7.60;;;2.67;;
28068;SDS011;15382;47.578;8.086;2023-04-25T00:17:51;9.07;;;2.42;;
28068;SDS011;15382;47.578;8.086;2023-04-25T00:37:53;10.83;;;2.43;;
28068;SDS011;15382;47.578;8.086;2023-04-25T00:47:55;7.32;;;2.30;;
28068;SDS011;15382;47.578;8.086;2023-04-25T00:57:56;5.22;;;2.13;;
28068;SDS011;15382;47.578;8.086;2023-04-25T01:07:58;2.22;;;1.73;;
28068;SDS011;15382;47.578;8.086;2023-04-25T01:17:59;6.82;;;2.42;;
28068;SDS011;15382;47.578;8.086;2023-04-25T01:38:02;3.53;;;2.23;;
28068;SDS011;15382;47.578;8.086;2023-04-25T01:48:03;2.70;;;1.90;;
28068;SDS011;15382;47.578;8.086;2023-04-25T01:58:04;6.63;;;2.38;;
28068;SDS011;15382;47.578;8.086;2023-04-25T02:08:29;8.60;;;2.10;;
28068;SDS011;15382;47.578;8.086;2023-04-25T02:18:31;6.75;;;2.30;;
28068;SDS011;15382;47.578;8.086;2023-04-25T02:28:33;5.13;;;2.47;;
28068;SDS011;15382;47.578;8.086;2023-04-25T02:38:38;5.57;;;2.83;;
28068;SDS011;15382;47.578;8.086;2023-04-25T02:58:39;6.53;;;3.13;;
28068;SDS011;15382;47.578;8.086;2023-04-25T03:08:40;7.53;;;2.70;;
28068;SDS011;15382;47.578;8.086;2023-04-25T03:28:42;6.88;;;3.15;;
28068;SDS011;15382;47.578;8.086;2023-04-25T03:38:43;5.72;;;2.95;;
28068;SDS011;15382;47.578;8.086;2023-04-25T03:48:47;6.38;;;2.97;;
28068;SDS011;15382;47.578;8.086;2023-04-25T03:58:54;10.68;;;3.20;;
28068;SDS011;15382;47.578;8.086;2023-04-25T04:08:58;6.68;;;3.70;;
28068;SDS011;15382;47.578;8.086;2023-04-25T04:18:59;6.63;;;3.95;;
28068;SDS011;15382;47.578;8.086;2023-04-25T04:28:59;9.35;;;4.10;;
28068;SDS011;15382;47.578;8.086;2023-04-25T04:39:27;7.13;;;3.88;;
28068;SDS011;15382;47.578;8.086;2023-04-25T04:49:36;8.48;;;3.72;;
28068;SDS011;15382;47.578;8.086;2023-04-25T05:00:02;12.63;;;3.90;;
28068;SDS011;15382;47.578;8.086;2023-04-25T05:10:33;9.17;;;5.07;;
28068;SDS011;15382;47.578;8.086;2023-04-25T05:20:52;10.65;;;6.15;;
28068;SDS011;15382;47.578;8.086;2023-04-25T05:31:00;11.60;;;5.25;;
28068;SDS011;15382;47.578;8.086;2023-04-25T05:41:12;6.40;;;2.85;;
28068;SDS011;15382;47.578;8.086;2023-04-25T05:51:16;8.25;;;3.10;;
28068;SDS011;15382;47.578;8.086;2023-04-25T06:01:37;8.40;;;2.88;;
28068;SDS011;15382;47.578;8.086;2023-04-25T06:11:38;12.57;;;3.35;;
28068;SDS011;15382;47.578;8.086;2023-04-25T06:31:40;7.50;;;3.28;;
28068;SDS011;15382;47.578;8.086;2023-04-25T06:41:41;11.18;;;4.32;;
28068;SDS011;15382;47.578;8.086;2023-04-25T06:51:49;9.10;;;5.45;;
28068;SDS011;15382;47.578;8.086;2023-04-25T07:11:54;8.25;;;4.05;;
28068;SDS011;15382;47.578;8.086;2023-04-25T07:21:56;7.43;;;4.53;;
28068;SDS011;15382;47.578;8.086;2023-04-25T07:41:58;10.18;;;5.50;;
28068;SDS011;15382;47.578;8.086;2023-04-25T07:52:03;12.90;;;6.13;;
28068;SDS011;15382;47.578;8.086;2023-04-25T08:02:09;15.60;;;5.68;;
28068;SDS011;15382;47.578;8.086;2023-04-25T08:12:10;8.85;;;4.03;;
28068;SDS011;15382;47.578;8.086;2023-04-25T08:32:23;8.02;;;4.43;;
28068;SDS011;15382;47.578;8.086;2023-04-25T08:42:42;3.63;;;2.75;;
28068;SDS011;15382;47.578;8.086;2023-04-25T08:52:43;5.53;;;2.22;;
28068;SDS011;15382;47.578;8.086;2023-04-25T09:02:49;3.80;;;2.03;;
28068;SDS011;15382;47.578;8.086;2023-04-25T09:13:12;3.75;;;1.50;;
28068;SDS011;15382;47.578;8.086;2023-04-25T09:23:51;3.20;;;1.60;;
28068;SDS011;15382;47.578;8.086;2023-04-25T09:33:58;4.13;;;1.50;;
28068;SDS011;15382;47.578;8.086;2023-04-25T09:44:01;2.40;;;1.65;;
28068;SDS011;15382;47.578;8.086;2023-04-25T09:54:09;1.80;;;1.33;;
28068;SDS011;15382;47.578;8.086;2023-04-25T10:04:24;3.20;;;1.27;;
28068;SDS011;15382;47.578;8.086;2023-04-25T10:14:37;2.80;;;1.52;;
28068;SDS011;15382;47.578;8.086;2023-04-25T10:24:40;1.42;;;0.90;;
28068;SDS011;15382;47.578;8.086;2023-04-25T10:34:42;1.02;;;0.85;;
28068;SDS011;15382;47.578;8.086;2023-04-25T10:45:00;1.42;;;0.90;;
28068;SDS011;15382;47.578;8.086;2023-04-25T10:55:05;1.98;;;1.45;;
28068;SDS011;15382;47.578;8.086;2023-04-25T11:15:07;2.30;;;1.30;;
28068;SDS011;15382;47.578;8.086;2023-04-25T11:25:09;1.38;;;0.90;;
28068;SDS011;15382;47.578;8.086;2023-04-25T11:35:12;2.83;;;1.38;;
28068;SDS011;15382;47.578;8.086;2023-04-25T11:45:13;3.13;;;1.50;;
28068;SDS011;15382;47.578;8.086;2023-04-25T12:05:16;1.53;;;1.00;;
28068;SDS011;15382;47.578;8.086;2023-04-25T12:15:19;2.43;;;1.13;;
28068;SDS011;15382;47.578;8.086;2023-04-25T12:25:41;3.15;;;1.20;;
28068;SDS011;15382;47.578;8.086;2023-04-25T12:35:43;5.15;;;1.48;;
28068;SDS011;15382;47.578;8.086;2023-04-25T12:45:44;4.20;;;1.70;;
28068;SDS011;15382;47.578;8.086;2023-04-25T12:55:48;2.95;;;1.90;;
28068;SDS011;15382;47.578;8.086;2023-04-25T13:15:50;2.15;;;1.23;;
28068;SDS011;15382;47.578;8.086;2023-04-25T13:25:51;6.37;;;1.70;;
28068;SDS011;15382;47.578;8.086;2023-04-25T13:35:52;4.83;;;2.17;;
28068;SDS011;15382;47.578;8.086;2023-04-25T13:45:57;3.50;;;2.08;;
28068;SDS011;15382;47.578;8.086;2023-04-25T13:55:58;3.37;;;0.70;;
28068;SDS011;15382;47.578;8.086;2023-04-25T14:05:58;1.47;;;0.80;;
28068;SDS011;15382;47.578;8.086;2023-04-25T14:15:59;1.50;;;0.77;;
28068;SDS011;15382;47.578;8.086;2023-04-25T14:26:00;3.57;;;0.93;;
28068;SDS011;15382;47.578;8.086;2023-04-25T14:46:02;1.77;;;0.70;;
28068;SDS011;15382;47.578;8.086;2023-04-25T14:56:03;1.00;;;0.50;;
28068;SDS011;15382;47.578;8.086;2023-04-25T15:16:06;3.60;;;0.70;;
28068;SDS011;15382;47.578;8.086;2023-04-25T15:26:07;1.55;;;0.68;;
28068;SDS011;15382;47.578;8.086;2023-04-25T15:46:10;1.60;;;0.97;;
28068;SDS011;15382;47.578;8.086;2023-04-25T15:56:11;3.00;;;0.73;;
28068;SDS011;15382;47.578;8.086;2023-04-25T16:06:12;1.40;;;0.83;;
28068;SDS011;15382;47.578;8.086;2023-04-25T16:16:13;2.37;;;1.17;;
28068;SDS011;15382;47.578;8.086;2023-04-25T16:26:15;3.00;;;0.90;;
28068;SDS011;15382;47.578;8.086;2023-04-25T16:36:15;6.03;;;0.97;;
28068;SDS011;15382;47.578;8.086;2023-04-25T16:46:16;3.93;;;1.20;;
28068;SDS011;15382;47.578;8.086;2023-04-25T16:56:20;5.43;;;1.30;;
28068;SDS011;15382;47.578;8.086;2023-04-25T17:06:22;3.33;;;0.93;;
28068;SDS011;15382;47.578;8.086;2023-04-25T17:16:28;1.70;;;1.40;;
28068;SDS011;15382;47.578;8.086;2023-04-25T17:26:34;2.57;;;1.53;;
28068;SDS011;15382;47.578;8.086;2023-04-25T17:36:35;2.72;;;1.63;;
28068;SDS011;15382;47.578;8.086;2023-04-25T17:46:37;2.75;;;1.20;;
28068;SDS011;15382;47.578;8.086;2023-04-25T17:56:38;4.77;;;1.83;;
28068;SDS011;15382;47.578;8.086;2023-04-25T18:06:39;2.65;;;1.50;;
28068;SDS011;15382;47.578;8.086;2023-04-25T18:16:41;10.32;;;3.50;;
28068;SDS011;15382;47.578;8.086;2023-04-25T18:26:44;5.20;;;2.35;;
28068;SDS011;15382;47.578;8.086;2023-04-25T18:36:47;4.53;;;1.92;;
28068;SDS011;15382;47.578;8.086;2023-04-25T18:46:48;4.73;;;1.67;;
28068;SDS011;15382;47.578;8.086;2023-04-25T18:56:48;1.30;;;0.90;;
28068;SDS011;15382;47.578;8.086;2023-04-25T19:06:49;2.47;;;1.70;;
28068;SDS011;15382;47.578;8.086;2023-04-25T19:16:51;1.77;;;1.20;;
28068;SDS011;15382;47.578;8.086;2023-04-25T19:26:52;3.70;;;2.60;;
28068;SDS011;15382;47.578;8.086;2023-04-25T19:36:52;5.53;;;1.47;;
28068;SDS011;15382;47.578;8.086;2023-04-25T19:46:54;2.13;;;1.60;;
28068;SDS011;15382;47.578;8.086;2023-04-25T19:56:55;5.63;;;3.00;;
28068;SDS011;15382;47.578;8.086;2023-04-25T20:06:56;1.60;;;1.23;;
28068;SDS011;15382;47.578;8.086;2023-04-25T20:16:57;3.33;;;2.17;;
28068;SDS011;15382;47.578;8.086;2023-04-25T20:26:58;3.00;;;1.37;;
28068;SDS011;15382;47.578;8.086;2023-04-25T20:36:58;3.43;;;1.97;;
28068;SDS011;15382;47.578;8.086;2023-04-25T20:47:01;3.28;;;2.13;;
28068;SDS011;15382;47.578;8.086;2023-04-25T20:57:03;2.90;;;1.75;;
28068;SDS011;15382;47.578;8.086;2023-04-25T21:07:05;2.75;;;1.88;;
28068;SDS011;15382;47.578;8.086;2023-04-25T21:17:06;6.10;;;2.10;;
28068;SDS011;15382;47.578;8.086;2023-04-25T21:27:07;5.13;;;1.83;;
28068;SDS011;15382;47.578;8.086;2023-04-25T21:37:08;3.63;;;2.07;;
28068;SDS011;15382;47.578;8.086;2023-04-25T21:47:08;3.93;;;2.03;;
28068;SDS011;15382;47.578;8.086;2023-04-25T21:57:09;4.03;;;2.30;;
28068;SDS011;15382;47.578;8.086;2023-04-25T22:07:10;6.93;;;2.30;;
28068;SDS011;15382;47.578;8.086;2023-04-25T22:17:11;4.95;;;2.28;;
28068;SDS011;15382;47.578;8.086;2023-04-25T22:27:12;7.13;;;2.43;;
28068;SDS011;15382;47.578;8.086;2023-04-25T22:37:13;4.30;;;2.75;;
28068;SDS011;15382;47.578;8.086;2023-04-25T22:57:15;9.18;;;2.42;;
